Birkenshaw, United Kingdom
Current Conditions -  °F | °C
As of 7:50 PM on Thursday 27 Nov 2014 (Local Time) from EGNM Reporting Station
Haze Haze  
Wind Chill: 41°   Ceiling: Unl
Heat Index: 45°   Visibility: 1mi
Dew Point: 45°   Wind: 6mph
Humidity: 100%   Direction: 150°SSE
Pressure: 29.59"   Gusts: NA
Location:  53.75°N, 1.66°W
Report Text: EGNM 271950Z 15005KT 120V180 1600 BR SCT002 SCT019 07/07 Q1002
Loading
Personal Weather Stations






























Interactive Weather Map New forecast layout! Learn more

10-Day Weather Forecast

Advertisements
Track Severe Weather on mobile